Cowlesville, New York
Current Conditions -  °F | °C
As of 8:54 AM on Friday 28 Nov 2014 (Local Time) from KBUF Reporting Station
Scattered Clouds Scattered Clouds  
Wind Chill: 10°   Ceiling: Unl
Heat Index: 22°   Visibility: 10mi
Dew Point: 12°   Wind: 13mph
Humidity: 66%   Direction: 270°W
Pressure: 30.25"   Gusts: NA
Location:  42.84°N, 78.47°W
Report Text: KBUF 281354Z 27011KT 10SM SCT045 SCT110 SCT200 M06/M11 A3025 RMK AO2 SLP256 T10561111
Loading
Personal Weather Stations






























Interactive Weather Map New forecast layout! Learn more

10-Day Weather Forecast

Advertisements
Track Severe Weather on mobile